Time;durP1;ratioP1;P1;durP2;ratioP2;P2;SDS_P1;SDS_P2;PMS_P1;PMS_P2;Temp;Humidity;BMP_temperature;BMP_pressure;BME280_temperature;BME280_humidity;BME280_pressure;Samples;Min_cycle;Max_cycle;Signal;HPM_P1;HPM_P2
2023/08/27 00:02:08;;;;;;;4.80;3.10;;;;;16.60;100545.00;;;;5023647;28;20269;-69
2023/08/27 00:04:54;;;;;;;3.27;2.70;;;;;16.70;100542.00;;;;5027901;28;20213;-68
2023/08/27 00:07:41;;;;;;;5.70;3.00;;;;;16.70;100541.00;;;;5023073;28;20221;-69
2023/08/27 00:10:27;;;;;;;3.20;2.90;;;;;16.70;100531.00;;;;5025479;28;20237;-69
2023/08/27 00:13:14;;;;;;;3.33;3.00;;;;;16.70;100535.00;;;;5020853;28;20238;-70
2023/08/27 00:16:00;;;;;;;3.23;2.90;;;;;16.60;100538.00;;;;5019623;28;20259;-70
2023/08/27 00:18:48;;;;;;;3.00;2.57;;;;;16.60;100535.00;;;;5020191;28;20689;-69
2023/08/27 00:21:34;;;;;;;3.00;2.70;;;;;16.60;100535.00;;;;5019549;28;20721;-69
2023/08/27 00:24:21;;;;;;;6.20;3.00;;;;;16.60;100515.00;;;;5023192;28;20273;-70
2023/08/27 00:27:07;;;;;;;2.73;2.53;;;;;16.60;100520.00;;;;5027414;28;20330;-69
2023/08/27 00:29:54;;;;;;;3.90;2.80;;;;;16.70;100526.00;;;;5020809;28;20236;-70
2023/08/27 00:32:41;;;;;;;3.10;2.53;;;;;16.70;100530.00;;;;5026556;28;20308;-69
2023/08/27 00:35:28;;;;;;;7.50;3.10;;;;;16.80;100524.00;;;;5026555;28;20361;-70
2023/08/27 00:38:15;;;;;;;3.00;2.73;;;;;16.80;100514.00;;;;5027220;28;20256;-70
2023/08/27 00:41:01;;;;;;;3.20;2.90;;;;;16.80;100502.00;;;;5021255;28;20323;-71
2023/08/27 00:43:48;;;;;;;3.70;2.80;;;;;16.70;100494.00;;;;5027121;28;20236;-69
2023/08/27 00:46:35;;;;;;;4.77;2.97;;;;;16.80;100476.00;;;;5027311;28;20341;-68
2023/08/27 00:49:21;;;;;;;4.87;2.77;;;;;16.70;100469.00;;;;5021829;28;20213;-70
2023/08/27 00:52:10;;;;;;;9.40;3.03;;;;;16.70;100455.00;;;;5019945;28;20218;-70
2023/08/27 00:55:00;;;;;;;3.17;2.53;;;;;16.60;100455.00;;;;5022710;28;20213;-69
2023/08/27 00:57:47;;;;;;;4.07;2.73;;;;;16.60;100454.00;;;;5021319;28;20348;-69
2023/08/27 01:00:33;;;;;;;6.10;2.70;;;;;16.50;100459.00;;;;5023621;28;20225;-69
2023/08/27 01:03:20;;;;;;;4.27;3.00;;;;;16.50;100437.00;;;;5026327;28;20313;-70
2023/08/27 01:06:07;;;;;;;3.37;3.07;;;;;16.40;100425.00;;;;5021051;28;20213;-69
2023/08/27 01:09:03;;;;;;;4.20;3.27;;;;;16.40;100414.00;;;;5027414;28;20689;-69
2023/08/27 01:11:58;;;;;;;3.90;2.93;;;;;16.40;100415.00;;;;5023650;28;20205;-69
2023/08/27 01:14:48;;;;;;;4.40;3.50;;;;;16.30;100409.00;;;;5023022;28;20961;-70
2023/08/27 01:17:36;;;;;;;8.93;3.30;;;;;16.20;100414.00;;;;5023597;28;20395;-68
2023/08/27 01:20:22;;;;;;;3.57;2.97;;;;;16.10;100419.00;;;;5022774;28;20230;-69
2023/08/27 01:23:11;;;;;;;3.67;2.70;;;;;16.10;100417.00;;;;5027716;28;20209;-70
2023/08/27 01:26:00;;;;;;;3.27;2.97;;;;;16.10;100410.00;;;;5025607;28;20230;-69
2023/08/27 01:28:53;;;;;;;4.93;2.83;;;;;16.10;100415.00;;;;5022463;28;20269;-69
2023/08/27 01:31:44;;;;;;;3.70;2.80;;;;;16.10;100412.00;;;;5023753;28;20233;-69
2023/08/27 01:34:31;;;;;;;4.30;2.90;;;;;16.00;100422.00;;;;5026053;28;20229;-69
2023/08/27 01:37:18;;;;;;;3.27;2.90;;;;;15.90;100451.00;;;;5023197;28;20218;-70
2023/08/27 01:40:09;;;;;;;3.93;2.93;;;;;15.80;100440.00;;;;5022259;28;20225;-69
2023/08/27 01:42:56;;;;;;;3.07;2.80;;;;;15.80;100431.00;;;;5015183;28;20221;-69
2023/08/27 01:45:43;;;;;;;3.13;2.83;;;;;15.70;100437.00;;;;5022496;28;20205;-68
2023/08/27 01:48:30;;;;;;;3.40;3.10;;;;;15.70;100442.00;;;;5020854;28;20208;-70
2023/08/27 01:51:16;;;;;;;4.13;3.00;;;;;15.70;100433.00;;;;5016821;28;20252;-69
2023/08/27 01:54:03;;;;;;;8.20;3.13;;;;;15.60;100444.00;;;;5021383;28;20587;-69
2023/08/27 01:56:51;;;;;;;3.20;2.90;;;;;15.50;100436.00;;;;5026681;28;20223;-70
2023/08/27 01:59:39;;;;;;;5.77;2.80;;;;;15.40;100436.00;;;;5016232;28;20201;-70
2023/08/27 02:02:25;;;;;;;6.17;2.97;;;;;15.40;100434.00;;;;5022307;28;20221;-69
2023/08/27 02:05:12;;;;;;;4.93;3.10;;;;;15.40;100437.00;;;;5017988;28;20310;-69
2023/08/27 02:07:58;;;;;;;3.93;2.70;;;;;15.40;100432.00;;;;5024084;28;20281;-70
2023/08/27 02:10:49;;;;;;;3.83;3.00;;;;;15.40;100436.00;;;;5021739;28;20236;-69
2023/08/27 02:13:36;;;;;;;9.37;3.00;;;;;15.30;100436.00;;;;5024613;28;20219;-69
2023/08/27 02:16:23;;;;;;;4.40;3.10;;;;;15.20;100423.00;;;;5026099;28;20286;-69
2023/08/27 02:19:10;;;;;;;3.57;2.90;;;;;15.20;100422.00;;;;5022251;28;20709;-69
2023/08/27 02:21:56;;;;;;;5.83;3.17;;;;;15.10;100419.00;;;;5026161;28;20220;-69
2023/08/27 02:24:43;;;;;;;3.13;2.83;;;;;15.10;100418.00;;;;5024216;28;20700;-69
2023/08/27 02:27:30;;;;;;;3.50;2.90;;;;;15.00;100415.00;;;;5024696;28;20309;-69
2023/08/27 02:30:17;;;;;;;4.40;3.30;;;;;15.00;100413.00;;;;5019793;28;20232;-70
2023/08/27 02:33:04;;;;;;;3.87;3.17;;;;;15.00;100405.00;;;;5018345;28;20566;-69
2023/08/27 02:35:51;;;;;;;3.67;2.73;;;;;14.90;100411.00;;;;5025648;28;20249;-69
2023/08/27 02:38:37;;;;;;;3.47;3.00;;;;;14.90;100400.00;;;;5029240;28;20352;-69
2023/08/27 02:41:24;;;;;;;3.33;3.00;;;;;14.90;100387.00;;;;5025450;28;20233;-69
2023/08/27 02:44:10;;;;;;;5.50;2.80;;;;;14.80;100388.00;;;;5027443;28;20220;-69
2023/08/27 02:46:58;;;;;;;3.00;2.70;;;;;14.80;100381.00;;;;5026621;28;20256;-70
2023/08/27 02:49:45;;;;;;;3.83;3.10;;;;;14.80;100381.00;;;;5027066;28;20340;-69
2023/08/27 02:52:32;;;;;;;4.97;2.97;;;;;14.80;100376.00;;;;5029657;28;20668;-69
2023/08/27 02:55:18;;;;;;;4.47;3.07;;;;;14.80;100376.00;;;;5023018;28;20233;-69
2023/08/27 02:58:04;;;;;;;5.07;3.10;;;;;14.80;100366.00;;;;5020939;28;20994;-69
2023/08/27 03:00:51;;;;;;;3.67;3.10;;;;;14.70;100369.00;;;;5027679;28;20231;-69
2023/08/27 03:03:38;;;;;;;5.90;3.20;;;;;14.70;100369.00;;;;5025098;28;20227;-69
2023/08/27 03:06:24;;;;;;;5.57;3.90;;;;;14.70;100366.00;;;;5028546;28;20226;-70
2023/08/27 03:09:11;;;;;;;5.50;3.40;;;;;14.70;100365.00;;;;5020440;28;20209;-69
2023/08/27 03:11:58;;;;;;;5.63;3.53;;;;;14.70;100363.00;;;;5028201;28;20259;-70
2023/08/27 03:14:44;;;;;;;5.13;3.37;;;;;14.70;100357.00;;;;5026527;28;20230;-69
2023/08/27 03:17:30;;;;;;;5.43;2.90;;;;;14.70;100347.00;;;;5024016;28;20227;-70
2023/08/27 03:20:18;;;;;;;6.20;3.50;;;;;14.60;100361.00;;;;5026254;28;20601;-69
2023/08/27 03:23:05;;;;;;;3.20;2.90;;;;;14.50;100352.00;;;;5028582;28;20621;-70
2023/08/27 03:25:55;;;;;;;3.23;2.93;;;;;14.50;100369.00;;;;5028887;28;20209;-70
2023/08/27 03:28:41;;;;;;;4.40;3.27;;;;;14.40;100365.00;;;;5025498;28;20270;-69
2023/08/27 03:31:27;;;;;;;6.83;3.20;;;;;14.50;100365.00;;;;5028679;28;20229;-68
2023/08/27 03:34:14;;;;;;;3.33;3.00;;;;;14.50;100362.00;;;;5021007;28;20227;-70
2023/08/27 03:37:03;;;;;;;5.10;2.97;;;;;14.50;100352.00;;;;5028250;28;20213;-70
2023/08/27 03:39:49;;;;;;;4.90;3.23;;;;;14.50;100361.00;;;;5026702;28;20258;-70
2023/08/27 03:42:35;;;;;;;5.60;3.20;;;;;14.50;100359.00;;;;5025797;28;20574;-70
2023/08/27 03:45:22;;;;;;;6.67;3.40;;;;;14.50;100365.00;;;;5019269;28;20237;-68
2023/08/27 03:48:08;;;;;;;7.40;3.67;;;;;14.50;100354.00;;;;5027593;28;20308;-69
2023/08/27 03:50:55;;;;;;;4.17;3.63;;;;;14.50;100355.00;;;;5025804;28;20233;-69
2023/08/27 03:53:42;;;;;;;4.07;3.33;;;;;14.50;100362.00;;;;5026063;28;20533;-71
2023/08/27 03:56:29;;;;;;;4.40;3.40;;;;;14.40;100356.00;;;;5027476;28;20341;-70
2023/08/27 03:59:15;;;;;;;4.33;3.37;;;;;14.40;100354.00;;;;5015566;28;20754;-69
2023/08/27 04:02:01;;;;;;;3.63;3.20;;;;;14.40;100356.00;;;;5024016;28;20283;-70
2023/08/27 04:04:48;;;;;;;4.93;3.50;;;;;14.40;100354.00;;;;5023424;28;20205;-69
2023/08/27 04:07:35;;;;;;;4.30;3.70;;;;;14.40;100360.00;;;;5022455;28;20713;-70
2023/08/27 04:10:23;;;;;;;9.70;3.40;;;;;14.40;100367.00;;;;5018263;28;20234;-67
2023/08/27 04:13:09;;;;;;;6.43;3.67;;;;;14.40;100367.00;;;;5020297;28;20214;-69
2023/08/27 04:16:00;;;;;;;6.83;3.73;;;;;14.40;100362.00;;;;5024163;28;20360;-69
2023/08/27 04:18:46;;;;;;;5.47;3.50;;;;;14.40;100358.00;;;;5022415;28;20605;-69
2023/08/27 04:21:32;;;;;;;6.10;3.40;;;;;14.40;100356.00;;;;5019842;28;20287;-69
2023/08/27 04:24:19;;;;;;;6.53;3.73;;;;;14.40;100358.00;;;;5013917;28;20214;-70
2023/08/27 04:27:07;;;;;;;4.93;3.53;;;;;14.40;100358.00;;;;5024509;28;20214;-69
2023/08/27 04:29:53;;;;;;;5.57;3.97;;;;;14.40;100358.00;;;;5026726;28;20233;-70
2023/08/27 04:32:40;;;;;;;4.47;3.57;;;;;14.40;100357.00;;;;5023639;28;20283;-70
2023/08/27 04:35:26;;;;;;;5.20;3.90;;;;;14.40;100362.00;;;;5017921;28;20245;-68
2023/08/27 04:38:13;;;;;;;4.63;3.80;;;;;14.40;100352.00;;;;5022629;28;20206;-69
2023/08/27 04:40:59;;;;;;;4.80;3.87;;;;;14.50;100361.00;;;;5025858;28;20226;-69
2023/08/27 04:43:47;;;;;;;4.90;3.80;;;;;14.50;100363.00;;;;5019354;28;20671;-69
2023/08/27 04:46:33;;;;;;;6.77;4.03;;;;;14.50;100356.00;;;;5024133;28;20285;-68
2023/08/27 04:49:20;;;;;;;7.27;4.03;;;;;14.50;100353.00;;;;5013254;28;20223;-69
2023/08/27 04:52:06;;;;;;;11.40;4.17;;;;;14.60;100354.00;;;;5024001;28;21098;-70
2023/08/27 04:55:13;;;;;;;6.17;4.20;;;;;14.60;100347.00;;;;5018469;28;20232;-69
2023/08/27 04:58:00;;;;;;;4.37;3.70;;;;;14.60;100368.00;;;;5022396;28;20321;-71
2023/08/27 05:00:49;;;;;;;4.33;3.70;;;;;14.70;100355.00;;;;5021786;28;20254;-69
2023/08/27 05:03:35;;;;;;;7.23;4.13;;;;;14.70;100360.00;;;;5021747;28;20230;-69
2023/08/27 05:06:22;;;;;;;5.33;4.13;;;;;14.80;100354.00;;;;5026897;28;20225;-68
2023/08/27 05:09:08;;;;;;;5.33;4.20;;;;;14.80;100356.00;;;;5022570;28;20229;-69
2023/08/27 05:11:54;;;;;;;5.53;4.07;;;;;14.80;100363.00;;;;5016906;28;20210;-69
2023/08/27 05:14:41;;;;;;;6.57;4.10;;;;;14.90;100344.00;;;;5018892;28;20215;-69
2023/08/27 05:17:29;;;;;;;5.40;4.07;;;;;14.90;100360.00;;;;5020066;28;20280;-69
2023/08/27 05:20:17;;;;;;;6.67;4.43;;;;;15.00;100357.00;;;;5018906;28;20358;-68
2023/08/27 05:23:04;;;;;;;5.17;3.70;;;;;15.10;100347.00;;;;5024787;28;20264;-68
2023/08/27 05:25:50;;;;;;;5.97;4.07;;;;;15.10;100371.00;;;;5022630;28;20212;-70
2023/08/27 05:28:37;;;;;;;6.73;3.80;;;;;15.20;100367.00;;;;5022664;28;20215;-69
2023/08/27 05:31:23;;;;;;;6.43;3.87;;;;;15.20;100368.00;;;;5024267;28;20718;-69
2023/08/27 05:34:12;;;;;;;6.20;3.70;;;;;15.30;100357.00;;;;5022096;28;20307;-69
2023/08/27 05:36:58;;;;;;;5.50;4.07;;;;;15.40;100375.00;;;;5025787;28;21388;-69
2023/08/27 05:39:45;;;;;;;5.70;4.00;;;;;15.50;100369.00;;;;5015446;28;20228;-70
2023/08/27 05:42:31;;;;;;;6.97;4.00;;;;;15.50;100381.00;;;;5023166;28;20344;-69
2023/08/27 05:45:18;;;;;;;5.03;3.87;;;;;15.60;100376.00;;;;5023113;28;20219;-69
2023/08/27 05:48:05;;;;;;;6.07;4.17;;;;;15.70;100373.00;;;;5023716;28;20211;-69
2023/08/27 05:50:53;;;;;;;8.33;4.23;;;;;15.70;100376.00;;;;5025613;28;20252;-70
2023/08/27 05:53:39;;;;;;;5.87;4.67;;;;;15.70;100374.00;;;;5023315;28;20589;-69
2023/08/27 05:56:27;;;;;;;5.77;4.20;;;;;15.80;100374.00;;;;5018996;28;20263;-71
2023/08/27 05:59:15;;;;;;;6.00;4.97;;;;;15.90;100371.00;;;;5025026;28;20255;-68
2023/08/27 06:02:02;;;;;;;9.27;4.53;;;;;15.90;100380.00;;;;5025252;28;20719;-69
2023/08/27 06:04:49;;;;;;;6.57;4.50;;;;;16.00;100387.00;;;;5025848;28;20581;-68
2023/08/27 06:07:36;;;;;;;6.10;4.47;;;;;16.10;100382.00;;;;5032071;28;20223;-70
2023/08/27 06:10:23;;;;;;;5.47;4.33;;;;;16.10;100385.00;;;;5033341;28;20229;-68
2023/08/27 06:13:10;;;;;;;5.10;4.60;;;;;16.20;100372.00;;;;5040335;28;20206;-70
2023/08/27 06:15:57;;;;;;;8.83;4.50;;;;;16.20;100373.00;;;;5043453;28;20243;-69
2023/08/27 06:18:43;;;;;;;6.67;4.30;;;;;16.20;100374.00;;;;5045860;28;20225;-68
2023/08/27 06:21:30;;;;;;;8.07;5.40;;;;;16.30;100373.00;;;;5038506;28;20229;-69
2023/08/27 06:24:18;;;;;;;6.97;4.90;;;;;16.30;100382.00;;;;5038497;28;20213;-69
2023/08/27 06:27:04;;;;;;;6.07;4.10;;;;;16.30;100384.00;;;;5044422;28;20871;-71
2023/08/27 06:29:51;;;;;;;5.60;4.00;;;;;16.30;100399.00;;;;5050942;28;20276;-68
2023/08/27 06:32:37;;;;;;;7.13;4.17;;;;;16.30;100404.00;;;;5028908;28;20221;-69
2023/08/27 06:35:24;;;;;;;5.00;4.40;;;;;16.30;100395.00;;;;5028382;28;20240;-68
2023/08/27 06:38:11;;;;;;;7.00;5.07;;;;;16.30;100385.00;;;;5028561;28;20217;-70
2023/08/27 06:40:59;;;;;;;6.30;4.70;;;;;16.30;100382.00;;;;5028066;28;20241;-70
2023/08/27 06:43:46;;;;;;;6.93;4.30;;;;;16.30;100385.00;;;;5028886;28;20307;-70
2023/08/27 06:46:33;;;;;;;8.30;4.47;;;;;16.30;100390.00;;;;5022902;28;20221;-71
2023/08/27 06:49:20;;;;;;;7.53;4.43;;;;;16.30;100380.00;;;;5027071;28;20213;-70
2023/08/27 06:52:07;;;;;;;5.20;3.87;;;;;16.40;100383.00;;;;5024937;28;20216;-71
2023/08/27 06:54:53;;;;;;;7.23;4.30;;;;;16.40;100386.00;;;;5028473;28;20217;-69
2023/08/27 06:57:41;;;;;;;13.03;4.77;;;;;16.50;100379.00;;;;5022919;28;20241;-71
2023/08/27 07:00:28;;;;;;;5.97;4.07;;;;;16.40;100388.00;;;;5025693;28;20233;-70
2023/08/27 07:03:18;;;;;;;6.40;4.40;;;;;16.40;100392.00;;;;5027807;28;20241;-70
2023/08/27 07:06:05;;;;;;;5.63;4.10;;;;;16.40;100410.00;;;;5022802;28;20221;-71
2023/08/27 07:08:53;;;;;;;6.20;4.53;;;;;16.40;100406.00;;;;5027798;28;20224;-70
2023/08/27 07:11:39;;;;;;;7.33;4.33;;;;;16.40;100413.00;;;;5024726;28;20315;-71
2023/08/27 07:14:27;;;;;;;6.33;4.23;;;;;16.40;100413.00;;;;5022763;28;20299;-71
2023/08/27 07:17:14;;;;;;;9.20;4.80;;;;;16.40;100416.00;;;;5028576;28;20734;-72
2023/08/27 07:20:01;;;;;;;5.77;4.50;;;;;16.40;100415.00;;;;5024814;28;20352;-70
2023/08/27 07:22:48;;;;;;;7.17;5.07;;;;;16.50;100406.00;;;;5026704;28;20214;-72
2023/08/27 07:25:35;;;;;;;7.63;4.77;;;;;16.50;100409.00;;;;5026201;28;20303;-73
2023/08/27 07:28:22;;;;;;;6.73;4.77;;;;;16.50;100417.00;;;;5027770;28;20217;-74
2023/08/27 07:31:09;;;;;;;7.90;4.77;;;;;16.60;100427.00;;;;5027552;28;20320;-74
2023/08/27 07:33:56;;;;;;;6.70;4.97;;;;;16.70;100425.00;;;;5022800;28;20587;-73
2023/08/27 07:36:43;;;;;;;6.90;5.20;;;;;16.80;100424.00;;;;5022450;28;20237;-73
2023/08/27 07:39:29;;;;;;;7.93;5.10;;;;;16.80;100417.00;;;;5019500;28;20221;-73
2023/08/27 07:42:16;;;;;;;7.37;4.93;;;;;16.80;100413.00;;;;5026353;28;20704;-72
2023/08/27 07:45:02;;;;;;;6.53;5.10;;;;;16.80;100416.00;;;;5027816;28;20213;-72
2023/08/27 07:47:50;;;;;;;7.10;5.03;;;;;16.80;100418.00;;;;5019869;28;20220;-72
2023/08/27 07:50:39;;;;;;;6.33;4.90;;;;;16.80;100416.00;;;;5021453;28;20237;-73
2023/08/27 07:53:25;;;;;;;8.23;4.87;;;;;16.80;100414.00;;;;5027407;28;20696;-72
2023/08/27 07:56:12;;;;;;;5.43;4.77;;;;;16.80;100410.00;;;;5025436;28;20780;-72
2023/08/27 07:58:58;;;;;;;6.77;4.40;;;;;16.70;100418.00;;;;5020125;28;20214;-72
2023/08/27 08:01:45;;;;;;;6.57;4.80;;;;;16.80;100415.00;;;;5021295;28;20292;-73
2023/08/27 08:04:35;;;;;;;6.90;4.57;;;;;16.80;100403.00;;;;5012452;28;20210;-72
2023/08/27 08:07:21;;;;;;;5.63;4.70;;;;;16.90;100398.00;;;;5026455;28;20217;-72
2023/08/27 08:10:08;;;;;;;5.90;4.63;;;;;17.00;100391.00;;;;5027631;28;20927;-72
2023/08/27 08:12:55;;;;;;;5.50;4.37;;;;;17.20;100394.00;;;;5018956;28;20206;-72
2023/08/27 08:15:42;;;;;;;4.93;4.23;;;;;17.50;100392.00;;;;5013712;28;20225;-72
2023/08/27 08:18:28;;;;;;;5.73;4.40;;;;;17.60;100397.00;;;;5027356;28;20205;-71
2023/08/27 08:21:19;;;;;;;5.33;4.67;;;;;17.60;100396.00;;;;5026213;28;20233;-72
2023/08/27 08:24:06;;;;;;;5.83;4.60;;;;;17.60;100406.00;;;;5027382;28;20247;-71
2023/08/27 08:26:53;;;;;;;6.90;4.40;;;;;17.60;100406.00;;;;5021816;28;20299;-72
2023/08/27 08:29:40;;;;;;;7.77;4.67;;;;;17.60;100408.00;;;;5027265;28;20245;-70
2023/08/27 08:32:26;;;;;;;5.47;4.37;;;;;17.70;100416.00;;;;5024948;28;20217;-70
2023/08/27 08:35:13;;;;;;;6.53;4.80;;;;;17.90;100422.00;;;;5018343;28;20205;-72
2023/08/27 08:38:01;;;;;;;6.23;4.13;;;;;18.00;100412.00;;;;5026836;28;20229;-71
2023/08/27 08:40:52;;;;;;;5.63;4.50;;;;;18.20;100418.00;;;;5027336;28;20372;-72
2023/08/27 08:43:44;;;;;;;7.30;4.87;;;;;18.40;100419.00;;;;5025505;28;20213;-71
2023/08/27 08:46:36;;;;;;;7.17;5.23;;;;;18.60;100413.00;;;;5025986;28;20686;-70
2023/08/27 08:49:27;;;;;;;7.57;5.10;;;;;18.80;100407.00;;;;5026165;28;20792;-70
2023/08/27 08:52:18;;;;;;;4.90;4.40;;;;;18.80;100414.00;;;;5026782;28;20213;-70
2023/08/27 08:55:08;;;;;;;6.87;4.30;;;;;18.90;100418.00;;;;5024050;28;20205;-71
2023/08/27 08:57:59;;;;;;;5.80;4.10;;;;;18.90;100404.00;;;;5025435;28;20345;-71
2023/08/27 09:00:46;;;;;;;4.73;4.23;;;;;19.10;100408.00;;;;5022023;28;20229;-73
2023/08/27 09:03:33;;;;;;;5.53;3.90;;;;;19.00;100407.00;;;;5025499;28;20210;-71
2023/08/27 09:06:21;;;;;;;4.60;3.57;;;;;19.10;100406.00;;;;5025822;28;20260;-71
2023/08/27 09:09:09;;;;;;;7.43;4.00;;;;;18.90;100408.00;;;;5020539;28;20345;-70
2023/08/27 09:11:59;;;;;;;4.80;4.30;;;;;18.70;100401.00;;;;5025291;28;20237;-70
2023/08/27 09:14:46;;;;;;;4.90;4.40;;;;;18.70;100405.00;;;;5024220;28;20209;-70
2023/08/27 09:17:33;;;;;;;7.80;5.80;;;;;18.80;100404.00;;;;5023245;28;20300;-70
2023/08/27 09:20:19;;;;;;;8.80;5.50;;;;;18.80;100396.00;;;;5022918;28;20241;-70
2023/08/27 09:23:09;;;;;;;7.37;5.53;;;;;19.00;100411.00;;;;5017041;28;20213;-73
2023/08/27 09:25:59;;;;;;;7.33;5.83;;;;;19.00;100403.00;;;;5020993;28;20221;-71
2023/08/27 09:28:48;;;;;;;7.83;5.70;;;;;18.90;100407.00;;;;5024093;28;20761;-71
2023/08/27 09:31:39;;;;;;;6.20;5.50;;;;;19.00;100407.00;;;;5026206;28;20252;-71
2023/08/27 09:34:26;;;;;;;6.87;5.20;;;;;19.00;100404.00;;;;5024426;28;20300;-72
2023/08/27 09:37:13;;;;;;;6.70;6.00;;;;;19.10;100403.00;;;;5024429;28;20718;-71
2023/08/27 09:40:00;;;;;;;7.33;5.90;;;;;19.10;100400.00;;;;5015467;28;20234;-71
2023/08/27 09:42:46;;;;;;;8.40;5.90;;;;;19.00;100398.00;;;;5019556;28;20214;-72
2023/08/27 09:45:34;;;;;;;8.90;5.77;;;;;19.00;100393.00;;;;5025706;28;20758;-71
2023/08/27 09:48:23;;;;;;;8.13;5.40;;;;;19.10;100390.00;;;;5017719;28;20213;-72
2023/08/27 09:51:11;;;;;;;8.17;6.00;;;;;19.30;100385.00;;;;5019863;28;20283;-71
2023/08/27 09:53:58;;;;;;;6.03;5.40;;;;;19.30;100375.00;;;;5021832;28;20210;-71
2023/08/27 09:56:46;;;;;;;6.67;5.70;;;;;19.40;100376.00;;;;5021729;28;20201;-71
2023/08/27 09:59:33;;;;;;;7.63;6.30;;;;;19.30;100369.00;;;;5025025;28;20290;-71
2023/08/27 10:02:21;;;;;;;10.20;6.60;;;;;19.30;100372.00;;;;5019741;28;20221;-71
2023/08/27 10:05:09;;;;;;;11.53;7.40;;;;;19.00;100365.00;;;;5026026;28;20209;-72
2023/08/27 10:07:57;;;;;;;7.43;6.13;;;;;19.00;100353.00;;;;5020143;28;20237;-72
2023/08/27 10:10:44;;;;;;;9.07;6.80;;;;;19.00;100350.00;;;;5018236;28;20225;-72
2023/08/27 10:13:32;;;;;;;7.33;5.90;;;;;19.20;100351.00;;;;5024659;28;20214;-71
2023/08/27 10:16:19;;;;;;;8.77;6.27;;;;;19.30;100345.00;;;;5026294;28;20209;-71
2023/08/27 10:19:07;;;;;;;10.03;7.50;;;;;19.20;100337.00;;;;5019355;28;20269;-71
2023/08/27 10:21:54;;;;;;;13.87;8.10;;;;;19.20;100339.00;;;;5020687;28;20373;-70
2023/08/27 10:24:41;;;;;;;12.13;7.40;;;;;19.20;100335.00;;;;5026153;28;20217;-70
2023/08/27 10:27:28;;;;;;;12.93;9.80;;;;;19.20;100324.00;;;;5022960;28;20291;-71
2023/08/27 10:30:16;;;;;;;11.97;8.87;;;;;19.30;100335.00;;;;5024615;28;20239;-70
2023/08/27 10:33:02;;;;;;;10.67;8.40;;;;;19.30;100341.00;;;;5019728;28;20220;-71
2023/08/27 10:35:53;;;;;;;12.43;8.90;;;;;19.30;100333.00;;;;5025621;28;20212;-70
2023/08/27 10:38:41;;;;;;;14.13;9.30;;;;;19.10;100332.00;;;;5018298;28;20231;-70
2023/08/27 10:41:29;;;;;;;12.77;9.50;;;;;19.30;100322.00;;;;5022889;28;20247;-70
2023/08/27 10:44:19;;;;;;;12.53;9.47;;;;;19.50;100333.00;;;;5021727;28;20206;-70
2023/08/27 10:47:11;;;;;;;11.30;9.13;;;;;20.00;100322.00;;;;5023503;28;20218;-70
2023/08/27 10:49:59;;;;;;;8.67;7.30;;;;;20.30;100320.00;;;;5022289;28;20234;-72
2023/08/27 10:52:52;;;;;;;9.60;6.50;;;;;20.60;100316.00;;;;5025093;28;20214;-70
2023/08/27 10:55:43;;;;;;;7.97;6.90;;;;;20.90;100317.00;;;;5024841;28;20399;-71
2023/08/27 10:58:30;;;;;;;9.27;6.43;;;;;21.10;100318.00;;;;5026352;28;20236;-72
2023/08/27 11:01:18;;;;;;;8.03;5.30;;;;;21.30;100316.00;;;;5029006;28;20713;-72
2023/08/27 11:04:06;;;;;;;5.57;4.90;;;;;21.30;100322.00;;;;5029085;28;20260;-72
2023/08/27 11:06:52;;;;;;;5.70;4.83;;;;;21.10;100317.00;;;;5027011;28;20217;-72
2023/08/27 11:09:48;;;;;;;6.10;4.63;;;;;21.00;100314.00;;;;5026587;28;20225;-73
2023/08/27 11:12:36;;;;;;;5.33;4.67;;;;;20.80;100307.00;;;;5019866;28;20260;-72
2023/08/27 11:15:28;;;;;;;5.40;4.53;;;;;20.70;100307.00;;;;5024979;28;20966;-72
2023/08/27 11:18:22;;;;;;;6.40;4.30;;;;;21.10;100304.00;;;;5024132;28;20279;-71
2023/08/27 11:21:19;;;;;;;4.83;4.00;;;;;21.50;100305.00;;;;5018601;28;20236;-73
2023/08/27 11:24:21;;;;;;;6.77;3.60;;;;;21.50;100299.00;;;;5026624;28;20741;-72
2023/08/27 11:27:09;;;;;;;5.43;3.30;;;;;21.30;100301.00;;;;5023490;28;20812;-73
2023/08/27 11:29:56;;;;;;;4.30;3.03;;;;;21.00;100301.00;;;;5014386;28;20237;-70
2023/08/27 11:32:43;;;;;;;3.77;3.00;;;;;21.00;100305.00;;;;5021053;28;20395;-72
2023/08/27 11:35:30;;;;;;;4.00;2.80;;;;;20.90;100297.00;;;;5018929;28;20315;-73
2023/08/27 11:38:16;;;;;;;2.93;2.60;;;;;21.10;100306.00;;;;5020689;28;20584;-72
2023/08/27 11:41:04;;;;;;;4.57;2.80;;;;;21.20;100296.00;;;;5019995;28;20314;-73
2023/08/27 11:43:55;;;;;;;3.63;2.70;;;;;21.60;100298.00;;;;5023135;28;20217;-71
2023/08/27 11:46:41;;;;;;;3.00;2.43;;;;;21.90;100300.00;;;;5023149;28;20214;-73
2023/08/27 11:49:32;;;;;;;3.07;2.10;;;;;22.20;100302.00;;;;5018884;28;20224;-72
2023/08/27 11:52:19;;;;;;;3.40;2.33;;;;;22.40;100293.00;;;;5021609;28;20308;-72
2023/08/27 11:55:07;;;;;;;3.47;2.27;;;;;22.70;100302.00;;;;5020109;28;20228;-72
2023/08/27 11:57:53;;;;;;;2.70;2.33;;;;;22.90;100305.00;;;;5019970;28;20210;-72
2023/08/27 12:00:44;;;;;;;3.73;2.10;;;;;23.10;100300.00;;;;5024383;28;20229;-73
2023/08/27 12:03:31;;;;;;;2.57;2.30;;;;;23.00;100298.00;;;;5024603;28;20313;-73
2023/08/27 12:06:20;;;;;;;3.93;2.00;;;;;22.80;100295.00;;;;5026547;28;20769;-72
2023/08/27 12:09:06;;;;;;;4.00;2.10;;;;;22.50;100305.00;;;;5015539;28;20283;-73
2023/08/27 12:11:53;;;;;;;2.43;1.93;;;;;22.50;100293.00;;;;5018705;28;20229;-74
2023/08/27 12:14:40;;;;;;;2.40;2.00;;;;;22.20;100303.00;;;;5019320;28;20897;-72
2023/08/27 12:17:33;;;;;;;3.70;2.00;;;;;21.80;100312.00;;;;5026097;28;20722;-72
2023/08/27 12:20:31;;;;;;;6.43;2.17;;;;;21.70;100304.00;;;;5019746;28;20237;-70
2023/08/27 12:23:18;;;;;;;4.23;2.40;;;;;21.60;100305.00;;;;5021915;28;20210;-72
2023/08/27 12:26:05;;;;;;;3.23;2.10;;;;;21.70;100302.00;;;;5024469;28;20574;-71
2023/08/27 12:28:53;;;;;;;3.67;2.10;;;;;22.20;100299.00;;;;5019872;28;20243;-71
2023/08/27 12:31:39;;;;;;;3.83;2.10;;;;;22.70;100291.00;;;;5022962;28;20239;-72
2023/08/27 12:34:35;;;;;;;2.57;1.70;;;;;22.90;100290.00;;;;5020200;28;20221;-71
2023/08/27 12:37:22;;;;;;;2.40;1.80;;;;;22.70;100292.00;;;;5023275;28;20229;-70
2023/08/27 12:40:09;;;;;;;3.53;1.60;;;;;22.30;100290.00;;;;5018334;28;20228;-72
2023/08/27 12:42:56;;;;;;;2.97;1.77;;;;;22.20;100285.00;;;;5015731;28;20307;-72
2023/08/27 12:45:42;;;;;;;2.80;1.70;;;;;22.00;100288.00;;;;5023802;28;20217;-72
2023/08/27 12:48:29;;;;;;;1.90;1.50;;;;;21.80;100271.00;;;;5021168;28;20222;-72
2023/08/27 12:51:16;;;;;;;1.90;1.57;;;;;21.70;100268.00;;;;5010324;28;20226;-72
2023/08/27 12:54:03;;;;;;;2.03;1.57;;;;;22.30;100262.00;;;;5024758;28;20218;-73
2023/08/27 12:56:50;;;;;;;3.87;2.00;;;;;22.90;100259.00;;;;5023411;28;20304;-73
2023/08/27 12:59:36;;;;;;;2.93;1.50;;;;;23.40;100261.00;;;;5020004;28;20241;-71
2023/08/27 13:02:22;;;;;;;2.00;1.20;;;;;23.80;100251.00;;;;5024530;28;20271;-72
2023/08/27 13:05:09;;;;;;;2.70;1.50;;;;;23.90;100275.00;;;;5015625;28;20334;-72
2023/08/27 13:08:00;;;;;;;2.00;1.40;;;;;23.50;100272.00;;;;5024349;28;20217;-73
2023/08/27 13:10:47;;;;;;;2.13;1.50;;;;;23.40;100276.00;;;;5021584;28;20245;-73
2023/08/27 13:13:34;;;;;;;1.77;1.40;;;;;23.60;100287.00;;;;5016718;28;20213;-73
2023/08/27 13:16:20;;;;;;;2.03;1.40;;;;;23.50;100298.00;;;;5019424;28;20234;-73
2023/08/27 13:19:07;;;;;;;1.67;1.40;;;;;23.10;100326.00;;;;5018513;28;20827;-72
2023/08/27 13:21:54;;;;;;;3.63;1.07;;;;;22.40;100346.00;;;;5026125;28;20776;-69
2023/08/27 13:24:42;;;;;;;2.20;1.00;;;;;21.60;100374.00;;;;5020665;28;20218;-72
2023/08/27 13:27:30;;;;;;;1.40;0.90;;;;;20.60;100387.00;;;;5025166;28;20232;-71
2023/08/27 13:30:16;;;;;;;1.10;1.00;;;;;19.80;100380.00;;;;5020287;28;20232;-71
2023/08/27 13:33:03;;;;;;;3.50;1.07;;;;;19.20;100403.00;;;;5024938;28;20208;-71
2023/08/27 13:35:50;;;;;;;1.73;1.10;;;;;18.50;100425.00;;;;5021724;28;20574;-70
2023/08/27 13:38:36;;;;;;;3.97;1.20;;;;;18.10;100430.00;;;;5023188;28;20582;-69
2023/08/27 13:41:24;;;;;;;1.30;1.20;;;;;17.90;100451.00;;;;5020562;28;20236;-71
2023/08/27 13:44:11;;;;;;;2.17;1.17;;;;;17.70;100441.00;;;;5018987;28;20210;-72
2023/08/27 13:46:57;;;;;;;3.33;1.53;;;;;17.60;100472.00;;;;5025990;28;20213;-71
2023/08/27 13:49:43;;;;;;;3.13;1.40;;;;;17.60;100449.00;;;;5022656;28;20202;-71